createdAt,value
2023-01-01T00:01:32.312Z,13.99
2023-01-01T00:04:12.985Z,14.02
2023-01-01T00:06:42.832Z,14.05
2023-01-01T00:09:30.201Z,14.08
2023-01-01T00:11:58.452Z,14.12
2023-01-01T00:14:37.136Z,14.15
2023-01-01T00:17:06.699Z,14.17
2023-01-01T00:19:36.099Z,14.22
2023-01-01T00:22:52.639Z,14.24
2023-01-01T00:25:09.196Z,14.25
2023-01-01T00:27:50.124Z,14.27
2023-01-01T00:30:22.557Z,14.29
2023-01-01T00:32:54.607Z,14.31
2023-01-01T00:35:26.095Z,14.29
2023-01-01T00:37:56.182Z,14.28
2023-01-01T00:40:33.574Z,14.28
2023-01-01T00:43:01.935Z,14.28
2023-01-01T00:45:37.196Z,14.31
2023-01-01T00:48:20.215Z,14.36
2023-01-01T00:51:01.315Z,14.42
2023-01-01T00:53:35.544Z,14.47
2023-01-01T00:56:19.072Z,14.56
2023-01-01T00:59:00.505Z,14.63
2023-01-01T01:01:35.051Z,14.67
2023-01-01T01:04:10.016Z,14.72
2023-01-01T01:06:44.475Z,14.77
2023-01-01T01:09:15.299Z,14.81
2023-01-01T01:11:50.601Z,14.84
2023-01-01T01:14:26.260Z,14.88
2023-01-01T01:16:55.680Z,14.93
2023-01-01T01:19:27.853Z,14.97
2023-01-01T01:21:56.088Z,15.02
2023-01-01T01:24:24.430Z,15.04
2023-01-01T01:26:54.060Z,15.07
2023-01-01T01:29:24.188Z,15.09
2023-01-01T01:31:53.334Z,15.10
2023-01-01T01:34:27.903Z,15.13
2023-01-01T01:36:56.999Z,15.14
2023-01-01T01:39:25.335Z,15.13
2023-01-01T01:41:53.699Z,15.09
2023-01-01T01:44:47.710Z,15.05
2023-01-01T01:47:31.377Z,15.02
2023-01-01T01:50:11.806Z,14.99
2023-01-01T01:52:57.356Z,14.97
2023-01-01T01:55:30.442Z,14.98
2023-01-01T01:57:58.893Z,15.01
2023-01-01T02:00:27.326Z,15.03
2023-01-01T02:03:06.408Z,15.02
2023-01-01T02:05:37.813Z,15.05
2023-01-01T02:08:07.220Z,15.09
2023-01-01T02:10:36.583Z,15.08
2023-01-01T02:13:05.069Z,15.06
2023-01-01T02:15:49.730Z,15.08
2023-01-01T02:18:26.204Z,15.07
2023-01-01T02:21:08.443Z,15.06
2023-01-01T02:23:55.516Z,15.08
2023-01-01T02:26:43.786Z,15.06
2023-01-01T02:29:38.674Z,15.03
2023-01-01T02:32:20.755Z,15.00
2023-01-01T02:35:26.098Z,14.99
2023-01-01T02:37:59.591Z,15.00
2023-01-01T02:40:29.526Z,15.02
2023-01-01T02:42:58.950Z,15.02
2023-01-01T02:45:27.302Z,15.01
2023-01-01T02:47:55.632Z,15.03
2023-01-01T02:50:29.027Z,15.03
2023-01-01T02:53:24.742Z,15.03
2023-01-01T02:56:02.886Z,15.03
2023-01-01T02:59:15.587Z,15.01
2023-01-01T03:02:02.357Z,14.98
2023-01-01T03:04:46.211Z,14.97
2023-01-01T03:07:40.652Z,14.97
2023-01-01T03:10:18.876Z,14.96
2023-01-01T03:12:57.166Z,14.97
2023-01-01T03:16:05.820Z,14.97
2023-01-01T03:18:41.640Z,14.91
2023-01-01T03:23:50.234Z,14.84
2023-01-01T03:26:21.049Z,14.80
2023-01-01T03:28:59.096Z,14.72
2023-01-01T03:31:27.568Z,14.60
2023-01-01T03:34:10.802Z,14.39
2023-01-01T03:36:44.407Z,14.12
2023-01-01T03:39:27.803Z,13.84
2023-01-01T03:42:34.802Z,13.55
2023-01-01T03:45:20.233Z,13.21
2023-01-01T03:47:49.034Z,12.90
2023-01-01T03:50:20.373Z,12.63
2023-01-01T03:52:58.207Z,12.39
2023-01-01T03:55:32.695Z,12.17
2023-01-01T03:58:23.641Z,12.00
2023-01-01T04:01:17.644Z,11.84
2023-01-01T04:03:47.939Z,11.69
2023-01-01T04:06:16.619Z,11.62
2023-01-01T04:08:47.324Z,11.60
2023-01-01T04:11:40.807Z,11.58
2023-01-01T04:14:10.174Z,11.54
2023-01-01T04:16:38.718Z,11.52
2023-01-01T04:19:07.165Z,11.49
2023-01-01T04:21:35.463Z,11.49
2023-01-01T04:24:04.085Z,11.45
2023-01-01T04:26:32.348Z,11.39
2023-01-01T04:29:00.665Z,11.40
2023-01-01T04:31:28.996Z,11.47
2023-01-01T04:33:57.524Z,11.55
2023-01-01T04:36:28.456Z,11.58
2023-01-01T04:38:57.027Z,11.51
2023-01-01T04:41:25.294Z,11.42
2023-01-01T04:43:53.531Z,11.32
2023-01-01T04:46:23.185Z,11.26
2023-01-01T04:48:52.092Z,11.27
2023-01-01T04:51:22.585Z,11.26
2023-01-01T04:53:50.928Z,11.18
2023-01-01T04:56:21.693Z,11.08
2023-01-01T04:58:50.242Z,10.98
2023-01-01T05:01:25.419Z,10.89
2023-01-01T05:03:55.013Z,10.81
2023-01-01T05:06:25.814Z,10.73
2023-01-01T05:08:55.883Z,10.68
2023-01-01T05:11:27.760Z,10.63
2023-01-01T05:14:00.762Z,10.58
2023-01-01T05:16:31.904Z,10.52
2023-01-01T05:19:00.442Z,10.45
2023-01-01T05:21:32.174Z,10.38
2023-01-01T05:24:03.584Z,10.30
2023-01-01T05:26:34.943Z,10.23
2023-01-01T05:29:04.109Z,10.18
2023-01-01T05:31:36.230Z,10.12
2023-01-01T05:36:38.943Z,10.04
2023-01-01T05:39:13.149Z,10.00
2023-01-01T05:41:42.402Z,9.97
2023-01-01T05:44:11.987Z,9.94
2023-01-01T05:46:40.406Z,9.94
2023-01-01T05:49:12.337Z,9.93
2023-01-01T05:56:37.856Z,9.91
2023-01-01T05:59:06.251Z,9.90
2023-01-01T06:01:38.693Z,9.89
2023-01-01T06:04:10.406Z,9.86
2023-01-01T06:06:38.750Z,9.83
2023-01-01T06:09:12.186Z,9.80
2023-01-01T06:11:40.535Z,9.76
2023-01-01T06:14:08.919Z,9.74
2023-01-01T06:16:38.123Z,9.70
2023-01-01T06:19:06.493Z,9.67
2023-01-01T06:21:35.061Z,9.65
2023-01-01T06:24:03.573Z,9.64
2023-01-01T06:26:33.330Z,9.63
2023-01-01T06:29:03.321Z,9.61
2023-01-01T06:31:40.127Z,9.60
2023-01-01T06:34:09.592Z,9.58
2023-01-01T06:36:38.082Z,9.58
2023-01-01T06:39:06.707Z,9.58
2023-01-01T06:41:35.086Z,9.59
2023-01-01T06:44:03.575Z,9.60
2023-01-01T06:46:37.084Z,9.60
2023-01-01T06:49:10.190Z,9.60
2023-01-01T06:51:44.132Z,9.60
2023-01-01T06:54:12.581Z,9.62
2023-01-01T06:56:40.835Z,9.63
2023-01-01T06:59:09.274Z,9.64
2023-01-01T07:01:44.036Z,9.66
2023-01-01T07:04:16.133Z,9.68
2023-01-01T07:06:44.619Z,9.70
2023-01-01T07:09:13.058Z,9.72
2023-01-01T07:11:41.353Z,9.73
2023-01-01T07:14:09.769Z,9.74
2023-01-01T07:16:38.118Z,9.73
2023-01-01T07:19:06.474Z,9.73
2023-01-01T07:21:37.696Z,9.73
2023-01-01T07:24:07.057Z,9.73
2023-01-01T07:26:35.364Z,9.72
2023-01-01T07:29:07.858Z,9.72
2023-01-01T07:31:41.532Z,9.70
2023-01-01T07:34:14.973Z,9.65
2023-01-01T07:36:43.614Z,9.61
2023-01-01T07:39:12.358Z,9.60
2023-01-01T07:41:40.873Z,9.58
2023-01-01T07:44:09.393Z,9.56
2023-01-01T07:46:37.978Z,9.57
2023-01-01T07:49:06.382Z,9.62
2023-01-01T07:51:35.930Z,9.68
2023-01-01T07:54:07.355Z,9.74
2023-01-01T07:56:36.630Z,9.79
2023-01-01T07:59:08.355Z,9.86
2023-01-01T08:01:38.238Z,9.95
2023-01-01T08:04:07.643Z,10.02
2023-01-01T08:06:38.006Z,10.10
2023-01-01T08:09:06.439Z,10.17
2023-01-01T08:11:34.702Z,10.23
2023-01-01T08:14:03.139Z,10.30
2023-01-01T08:16:31.650Z,10.35
2023-01-01T08:19:00.049Z,10.41
2023-01-01T08:21:28.645Z,10.45
2023-01-01T08:23:57.502Z,10.49
2023-01-01T08:26:32.086Z,10.53
2023-01-01T08:29:04.347Z,10.58
2023-01-01T08:31:33.511Z,10.62
2023-01-01T08:34:02.015Z,10.65
2023-01-01T08:36:30.363Z,10.69
2023-01-01T08:38:58.904Z,10.72
2023-01-01T08:41:27.191Z,10.75
2023-01-01T08:43:55.508Z,10.78
2023-01-01T08:46:23.943Z,10.81
2023-01-01T08:48:52.415Z,10.83
2023-01-01T08:51:21.497Z,10.86
2023-01-01T08:53:51.405Z,10.88
2023-01-01T08:56:20.656Z,10.92
2023-01-01T08:58:49.906Z,10.95
2023-01-01T09:01:22.375Z,11.00
2023-01-01T09:03:51.006Z,11.05
2023-01-01T09:06:19.972Z,11.09
2023-01-01T09:08:48.386Z,11.13
2023-01-01T09:11:28.498Z,11.16
2023-01-01T09:13:56.917Z,11.18
2023-01-01T09:16:25.597Z,11.20
2023-01-01T09:18:53.977Z,11.25
2023-01-01T09:21:22.418Z,11.30
2023-01-01T09:23:50.798Z,11.35
2023-01-01T09:26:19.228Z,11.40
2023-01-01T09:28:47.565Z,11.41
2023-01-01T09:31:16.086Z,11.41
2023-01-01T09:33:44.904Z,11.42
2023-01-01T09:36:23.503Z,11.42
2023-01-01T09:38:53.490Z,11.45
2023-01-01T09:41:33.741Z,11.47
2023-01-01T09:44:25.217Z,11.52
2023-01-01T09:46:54.899Z,11.57
2023-01-01T09:49:38.508Z,11.64
2023-01-01T09:52:07.334Z,11.75
2023-01-01T09:54:56.038Z,11.85
2023-01-01T09:57:32.167Z,11.91
2023-01-01T10:00:03.833Z,11.97
2023-01-01T10:02:51.753Z,12.03
2023-01-01T10:05:43.380Z,12.06
2023-01-01T10:08:23.690Z,12.08
2023-01-01T10:10:58.350Z,12.08
2023-01-01T10:13:46.208Z,12.06
2023-01-01T10:16:34.421Z,11.99
2023-01-01T10:19:24.903Z,11.98
2023-01-01T10:21:58.326Z,12.08
2023-01-01T10:24:36.612Z,12.23
2023-01-01T10:27:06.870Z,12.43
2023-01-01T10:30:01.316Z,12.62
2023-01-01T10:32:39.386Z,12.82
2023-01-01T10:35:15.058Z,12.99
2023-01-01T10:37:44.889Z,13.13
2023-01-01T10:40:22.749Z,13.28
2023-01-01T10:42:54.592Z,13.46
2023-01-01T10:45:35.679Z,13.64
2023-01-01T10:48:21.277Z,13.79
2023-01-01T10:50:54.828Z,13.96
2023-01-01T10:53:28.385Z,14.07
2023-01-01T10:56:04.546Z,14.11
2023-01-01T10:58:52.284Z,14.12
2023-01-01T11:01:25.013Z,14.19
2023-01-01T11:04:17.471Z,14.27
2023-01-01T11:06:48.003Z,14.38
2023-01-01T11:09:33.383Z,14.44
2023-01-01T11:12:19.109Z,14.45
2023-01-01T11:14:59.587Z,14.44
2023-01-01T11:17:31.669Z,14.48
2023-01-01T11:20:05.577Z,14.50
2023-01-01T11:23:17.759Z,14.47
2023-01-01T11:26:13.441Z,14.43
2023-01-01T11:29:02.701Z,14.40
2023-01-01T11:31:39.238Z,14.39
2023-01-01T11:34:36.372Z,14.40
2023-01-01T11:37:26.216Z,14.45
2023-01-01T11:40:03.972Z,14.47
2023-01-01T11:42:35.935Z,14.49
2023-01-01T11:45:23.236Z,14.54
2023-01-01T11:48:00.360Z,14.59
2023-01-01T11:50:30.796Z,14.65
2023-01-01T11:53:19.419Z,14.71
2023-01-01T11:55:47.629Z,14.74
2023-01-01T11:58:38.351Z,14.78
2023-01-01T12:01:31.859Z,14.84
2023-01-01T12:04:06.639Z,14.89
2023-01-01T12:06:46.878Z,14.94
2023-01-01T12:10:24.731Z,15.02
2023-01-01T12:13:13.578Z,15.15
2023-01-01T12:15:56.178Z,15.24
2023-01-01T12:18:42.766Z,15.29
2023-01-01T12:21:36.176Z,15.33
2023-01-01T12:24:10.098Z,15.34
2023-01-01T12:27:10.337Z,15.38
2023-01-01T12:30:01.651Z,15.37
2023-01-01T12:32:51.494Z,15.39
2023-01-01T12:35:29.395Z,15.38
2023-01-01T12:38:19.631Z,15.36
2023-01-01T12:41:23.052Z,15.35
2023-01-01T12:43:54.603Z,15.33
2023-01-01T12:46:58.916Z,15.29
2023-01-01T12:49:39.309Z,15.23
2023-01-01T12:52:40.288Z,15.22
2023-01-01T12:55:31.345Z,15.15
2023-01-01T12:58:21.404Z,15.05
2023-01-01T13:01:12.382Z,14.98
2023-01-01T13:04:22.783Z,14.93
2023-01-01T13:07:06.611Z,14.90
2023-01-01T13:10:05.541Z,14.87
2023-01-01T13:12:47.152Z,14.78
2023-01-01T13:15:37.389Z,14.75
2023-01-01T13:18:07.496Z,14.76
2023-01-01T13:20:42.444Z,14.75
2023-01-01T13:23:29.356Z,14.75
2023-01-01T13:26:31.934Z,14.72
2023-01-01T13:29:03.980Z,14.69
2023-01-01T13:31:39.527Z,14.67
2023-01-01T13:34:41.259Z,14.65
2023-01-01T13:37:17.371Z,14.58
2023-01-01T13:40:01.364Z,14.50
2023-01-01T13:42:59.007Z,14.42
2023-01-01T13:46:11.233Z,14.37
2023-01-01T13:49:03.015Z,14.29
2023-01-01T13:52:07.932Z,14.22
2023-01-01T13:55:00.237Z,14.15
2023-01-01T13:57:44.020Z,14.08
2023-01-01T14:00:32.695Z,13.99
2023-01-01T14:03:07.122Z,13.90
2023-01-01T14:05:43.074Z,13.80
2023-01-01T14:08:34.399Z,13.71
2023-01-01T14:11:22.523Z,13.61
2023-01-01T14:13:51.134Z,13.51
2023-01-01T14:16:19.589Z,13.38
2023-01-01T14:18:51.161Z,13.25
2023-01-01T14:21:23.488Z,13.12
2023-01-01T14:23:59.593Z,12.97
2023-01-01T14:26:35.913Z,12.84
2023-01-01T14:29:14.144Z,12.72
2023-01-01T14:31:46.338Z,12.59
2023-01-01T14:34:31.603Z,12.49
2023-01-01T14:37:12.430Z,12.39
2023-01-01T14:39:51.424Z,12.31
2023-01-01T14:42:30.188Z,12.23
2023-01-01T14:44:59.568Z,12.16
2023-01-01T14:47:36.104Z,12.10
2023-01-01T14:50:29.164Z,12.03
2023-01-01T14:53:12.230Z,11.96
2023-01-01T14:55:45.995Z,11.90
2023-01-01T14:58:21.123Z,11.84
2023-01-01T15:00:51.460Z,11.77
2023-01-01T15:03:22.679Z,11.72
2023-01-01T15:06:03.727Z,11.66
2023-01-01T15:08:32.463Z,11.61
2023-01-01T15:11:03.881Z,11.54
2023-01-01T15:13:32.237Z,11.47
2023-01-01T15:16:18.776Z,11.40
2023-01-01T15:18:50.896Z,11.33
2023-01-01T15:21:31.206Z,11.25
2023-01-01T15:24:11.497Z,11.18
2023-01-01T15:26:44.669Z,11.12
2023-01-01T15:29:24.107Z,11.07
2023-01-01T15:31:57.528Z,11.01
2023-01-01T15:34:32.615Z,10.97
2023-01-01T15:37:19.420Z,10.91
2023-01-01T15:39:51.389Z,10.82
2023-01-01T15:42:22.808Z,10.74
2023-01-01T15:44:51.179Z,10.68
2023-01-01T15:47:26.602Z,10.62
2023-01-01T15:50:26.451Z,10.54
2023-01-01T15:52:59.379Z,10.46
2023-01-01T15:55:32.381Z,10.40
2023-01-01T15:58:03.221Z,10.33
2023-01-01T16:00:38.795Z,10.24
2023-01-01T16:03:20.401Z,10.14
2023-01-01T16:05:52.243Z,10.00
2023-01-01T16:08:20.530Z,9.89
2023-01-01T16:10:51.235Z,9.77
2023-01-01T16:13:19.630Z,9.64
2023-01-01T16:16:32.438Z,9.52
2023-01-01T16:19:01.331Z,9.37
2023-01-01T16:21:34.945Z,9.26
2023-01-01T16:24:03.419Z,9.16
2023-01-01T16:26:31.777Z,9.09
2023-01-01T16:29:00.113Z,9.04
2023-01-01T16:31:28.826Z,8.90
2023-01-01T16:34:04.352Z,8.73
2023-01-01T16:36:32.914Z,8.52
2023-01-01T16:39:01.357Z,8.32
2023-01-01T16:41:31.860Z,8.19
2023-01-01T16:44:01.037Z,8.07
2023-01-01T16:46:29.535Z,7.95
2023-01-01T16:48:58.452Z,7.80
2023-01-01T16:51:31.514Z,7.65
2023-01-01T16:54:01.189Z,7.56
2023-01-01T16:56:30.497Z,7.51
2023-01-01T16:59:03.250Z,7.39
2023-01-01T17:01:32.558Z,7.28
2023-01-01T17:04:01.395Z,7.18
2023-01-01T17:06:29.891Z,7.06
2023-01-01T17:09:01.691Z,6.98
2023-01-01T17:11:30.659Z,6.96
2023-01-01T17:13:59.909Z,6.97
2023-01-01T17:16:34.447Z,6.93
2023-01-01T17:19:21.136Z,6.86
2023-01-01T17:21:50.612Z,6.80
2023-01-01T17:24:20.526Z,6.75
2023-01-01T17:26:54.090Z,6.72
2023-01-01T17:29:24.217Z,6.69
2023-01-01T17:31:53.891Z,6.63
2023-01-01T17:34:22.280Z,6.57
2023-01-01T17:36:50.809Z,6.54
2023-01-01T17:39:19.117Z,6.51
2023-01-01T17:41:48.973Z,6.52
2023-01-01T17:44:18.466Z,6.63
2023-01-01T17:46:46.948Z,6.71
2023-01-01T17:49:16.067Z,6.71
2023-01-01T17:51:44.649Z,6.71
2023-01-01T17:54:13.924Z,6.79
2023-01-01T17:56:42.973Z,6.96
2023-01-01T17:59:12.316Z,7.16
2023-01-01T18:01:40.804Z,7.34
2023-01-01T18:04:11.066Z,7.49
2023-01-01T18:06:43.593Z,7.62
2023-01-01T18:09:17.092Z,7.74
2023-01-01T18:11:45.844Z,7.84
2023-01-01T18:14:18.359Z,7.93
2023-01-01T18:16:51.682Z,8.00
2023-01-01T18:19:20.852Z,8.06
2023-01-01T18:21:49.426Z,8.10
2023-01-01T18:24:19.236Z,8.10
2023-01-01T18:26:50.226Z,8.07
2023-01-01T18:29:19.737Z,8.07
2023-01-01T18:31:52.259Z,8.08
2023-01-01T18:34:21.779Z,8.08
2023-01-01T18:36:50.260Z,8.07
2023-01-01T18:39:27.467Z,8.08
2023-01-01T18:41:55.900Z,8.11
2023-01-01T18:44:28.539Z,8.15
2023-01-01T18:47:02.410Z,8.16
2023-01-01T18:49:52.719Z,8.13
2023-01-01T18:52:23.076Z,8.12
2023-01-01T18:55:07.950Z,8.12
2023-01-01T18:57:40.231Z,8.14
2023-01-01T19:00:26.248Z,8.15
2023-01-01T19:03:00.786Z,8.15
2023-01-01T19:05:31.050Z,8.16
2023-01-01T19:08:08.307Z,8.15
2023-01-01T19:10:47.757Z,8.15
2023-01-01T19:13:32.053Z,8.12
2023-01-01T19:16:11.979Z,8.09
2023-01-01T19:18:44.129Z,8.06
2023-01-01T19:21:12.777Z,8.05
2023-01-01T19:23:51.330Z,8.04
2023-01-01T19:26:26.130Z,8.05
2023-01-01T19:29:19.777Z,8.07
2023-01-01T19:31:51.641Z,8.08
2023-01-01T19:34:20.983Z,8.11
2023-01-01T19:36:50.833Z,8.13
2023-01-01T19:39:21.517Z,8.14
2023-01-01T19:41:52.919Z,8.12
2023-01-01T19:44:24.968Z,8.09
2023-01-01T19:46:54.360Z,8.05
2023-01-01T19:49:24.131Z,8.01
2023-01-01T19:51:52.693Z,7.99
2023-01-01T19:54:21.013Z,8.00
2023-01-01T19:56:50.668Z,8.00
2023-01-01T19:59:22.737Z,8.01
2023-01-01T20:02:25.826Z,8.01
2023-01-01T20:04:43.385Z,8.00
2023-01-01T20:07:14.587Z,7.98
2023-01-01T20:09:44.242Z,7.96
2023-01-01T20:12:14.291Z,7.94
2023-01-01T20:14:42.805Z,7.92
2023-01-01T20:17:11.648Z,7.91
2023-01-01T20:19:42.546Z,7.89
2023-01-01T20:22:17.926Z,7.85
2023-01-01T20:24:46.515Z,7.81
2023-01-01T20:27:18.033Z,7.79
2023-01-01T20:29:46.551Z,7.78
2023-01-01T20:32:16.438Z,7.77
2023-01-01T20:34:45.921Z,7.77
2023-01-01T20:37:33.095Z,7.75
2023-01-01T20:40:05.557Z,7.73
2023-01-01T20:42:34.038Z,7.71
2023-01-01T20:45:07.921Z,7.69
2023-01-01T20:47:37.233Z,7.68
2023-01-01T20:50:07.008Z,7.68
2023-01-01T20:52:35.408Z,7.68
2023-01-01T20:55:04.213Z,7.67
2023-01-01T20:57:32.848Z,7.65
2023-01-01T21:00:03.076Z,7.63
2023-01-01T21:02:31.591Z,7.60
2023-01-01T21:05:00.680Z,7.59
2023-01-01T21:07:29.103Z,7.58
2023-01-01T21:09:57.407Z,7.57
2023-01-01T21:12:25.746Z,7.58
2023-01-01T21:14:56.181Z,7.58
2023-01-01T21:17:24.817Z,7.57
2023-01-01T21:19:56.908Z,7.57
2023-01-01T21:22:26.871Z,7.57
2023-01-01T21:25:16.916Z,7.55
2023-01-01T21:27:46.352Z,7.54
2023-01-01T21:30:15.712Z,7.52
2023-01-01T21:32:51.193Z,7.51
2023-01-01T21:35:23.775Z,7.51
2023-01-01T21:37:57.418Z,7.52
2023-01-01T21:40:39.907Z,7.53
2023-01-01T21:43:08.273Z,7.52
2023-01-01T21:45:38.566Z,7.51
2023-01-01T21:48:20.219Z,7.49
2023-01-01T21:50:52.086Z,7.45
2023-01-01T21:53:24.690Z,7.42
2023-01-01T21:55:55.554Z,7.40
2023-01-01T21:58:52.247Z,7.37
2023-01-01T22:01:36.718Z,7.35
2023-01-01T22:04:08.148Z,7.33
2023-01-01T22:06:39.012Z,7.32
2023-01-01T22:09:13.147Z,7.32
2023-01-01T22:11:41.716Z,7.33
2023-01-01T22:14:19.902Z,7.32
2023-01-01T22:16:51.829Z,7.30
2023-01-01T22:19:23.793Z,7.29
2023-01-01T22:21:53.525Z,7.23
2023-01-01T22:24:27.582Z,7.17
2023-01-01T22:26:57.662Z,7.07
2023-01-01T22:29:26.958Z,7.00
2023-01-01T22:32:33.129Z,6.97
2023-01-01T22:35:10.783Z,6.96
2023-01-01T22:37:41.170Z,6.94
2023-01-01T22:40:29.451Z,6.92
2023-01-01T22:43:02.835Z,6.86
2023-01-01T22:45:33.524Z,6.80
2023-01-01T22:48:05.951Z,6.77
2023-01-01T22:50:34.602Z,6.74
2023-01-01T22:53:02.938Z,6.68
2023-01-01T22:55:31.220Z,6.62
2023-01-01T22:57:59.569Z,6.55
2023-01-01T23:00:27.914Z,6.47
2023-01-01T23:02:56.345Z,6.38
2023-01-01T23:05:24.791Z,6.28
2023-01-01T23:07:53.588Z,6.21
2023-01-01T23:10:22.067Z,6.12
2023-01-01T23:12:50.433Z,6.05
2023-01-01T23:15:37.582Z,5.98
2023-01-01T23:18:09.543Z,5.90
2023-01-01T23:20:37.906Z,5.83
2023-01-01T23:23:07.318Z,5.75
2023-01-01T23:25:35.704Z,5.63
2023-01-01T23:28:04.213Z,5.51
2023-01-01T23:30:33.665Z,5.40
2023-01-01T23:33:02.107Z,5.27
2023-01-01T23:35:30.412Z,5.12
2023-01-01T23:38:00.630Z,5.02
2023-01-01T23:40:29.056Z,4.96
2023-01-01T23:42:58.786Z,4.88
2023-01-01T23:45:27.930Z,4.82
2023-01-01T23:47:57.258Z,4.74
2023-01-01T23:50:25.729Z,4.70
2023-01-01T23:52:53.992Z,4.72
2023-01-01T23:55:23.031Z,4.80
2023-01-01T23:57:52.568Z,4.88
